Time;durP1;ratioP1;P1;durP2;ratioP2;P2;SDS_P1;SDS_P2;PMS_P1;PMS_P2;Temp;Humidity;BMP_temperature;BMP_pressure;BME280_temperature;BME280_humidity;BME280_pressure;Samples;Min_cycle;Max_cycle;Signal;HPM_P1;HPM_P2
2022/09/01 00:00:31;;;;;;;2.03;1.08;;;;;;;12.34;100.00;101857.53;5016519;28;20429;-87
2022/09/01 00:03:01;;;;;;;1.70;1.00;;;;;;;12.29;100.00;101857.53;5014861;28;20426;-85
2022/09/01 00:05:35;;;;;;;1.70;0.98;;;;;;;12.22;100.00;101846.81;5029354;28;20418;-86
2022/09/01 00:08:03;;;;;;;1.83;1.10;;;;;;;12.05;100.00;101846.94;5029162;28;20453;-85
2022/09/01 00:10:36;;;;;;;1.40;1.10;;;;;;;12.07;100.00;101852.19;5011215;28;20430;-85
2022/09/01 00:13:10;;;;;;;2.30;1.30;;;;;;;12.10;100.00;101846.19;5014913;28;20429;-85
2022/09/01 00:15:43;;;;;;;2.50;1.20;;;;;;;12.13;100.00;101853.03;5013259;28;20791;-84
2022/09/01 00:18:18;;;;;;;1.50;1.05;;;;;;;11.96;100.00;101843.06;5032835;28;20437;-86
2022/09/01 00:20:46;;;;;;;2.00;1.10;;;;;;;11.93;100.00;101840.81;5028069;28;20753;-85
2022/09/01 00:23:19;;;;;;;1.90;1.10;;;;;;;11.88;100.00;101843.53;5012726;28;20427;-85
2022/09/01 00:25:48;;;;;;;2.55;1.17;;;;;;;11.91;100.00;101846.53;5013557;28;20438;-86
2022/09/01 00:28:21;;;;;;;2.03;1.10;;;;;;;11.89;100.00;101839.69;5012461;28;20427;-85
2022/09/01 00:30:54;;;;;;;1.80;1.00;;;;;;;11.85;100.00;101852.25;5030705;28;20925;-85
2022/09/01 00:33:23;;;;;;;2.53;1.10;;;;;;;11.88;100.00;101840.81;5031426;28;20439;-85
2022/09/01 00:35:57;;;;;;;2.90;1.40;;;;;;;11.86;100.00;101840.22;5028247;28;20435;-85
2022/09/01 00:38:30;;;;;;;1.55;1.13;;;;;;;11.86;100.00;101829.31;5029772;28;20430;-84
2022/09/01 00:41:06;;;;;;;1.80;1.10;;;;;;;11.88;100.00;101833.44;5026996;28;20427;-85
2022/09/01 00:43:43;;;;;;;2.28;1.30;;;;;;;11.90;100.00;101838.63;5029319;28;20434;-85
2022/09/01 00:46:19;;;;;;;1.73;1.23;;;;;;;11.94;100.00;101838.94;5029209;28;20419;-85
2022/09/01 00:48:58;;;;;;;1.40;1.08;;;;;;;12.02;100.00;101839.28;5000679;28;20421;-84
2022/09/01 00:51:28;;;;;;;1.67;1.10;;;;;;;12.00;100.00;101827.84;5019432;28;20438;-85
2022/09/01 00:54:02;;;;;;;1.35;1.00;;;;;;;11.98;100.00;101829.19;5011385;28;20799;-84
2022/09/01 00:56:39;;;;;;;2.17;1.10;;;;;;;11.99;100.00;101834.38;5005481;28;20912;-85
2022/09/01 00:59:09;;;;;;;1.35;0.95;;;;;;;11.99;100.00;101822.66;5031272;28;20430;-85
2022/09/01 01:01:39;;;;;;;4.30;1.40;;;;;;;12.01;100.00;101818.53;5025054;28;20419;-85
2022/09/01 01:04:14;;;;;;;1.70;1.10;;;;;;;12.07;100.00;101822.97;5041143;28;20418;-86
2022/09/01 01:06:57;;;;;;;1.58;1.00;;;;;;;12.12;100.00;101827.63;5012200;28;20435;-85
2022/09/01 01:09:29;;;;;;;1.80;1.15;;;;;;;12.14;100.00;101830.09;5030792;28;20753;-85
2022/09/01 01:11:58;;;;;;;6.00;1.08;;;;;;;12.13;100.00;101820.28;4996438;28;20448;-86
2022/09/01 01:14:31;;;;;;;1.80;1.30;;;;;;;12.07;100.00;101820.25;5011634;28;20883;-85
2022/09/01 01:17:04;;;;;;;1.88;1.23;;;;;;;12.14;100.00;101830.94;5026364;28;20419;-86
2022/09/01 01:23:02;;;;;;;2.25;1.42;;;;;;;12.15;100.00;101818.09;5011802;28;20427;-85
2022/09/01 01:25:35;;;;;;;2.65;1.45;;;;;;;12.08;100.00;101829.25;5027704;28;20886;-85
2022/09/01 01:28:12;;;;;;;2.97;1.33;;;;;;;12.14;100.00;101828.22;5027624;28;20415;-85
2022/09/01 01:30:43;;;;;;;5.80;1.40;;;;;;;12.16;100.00;101831.47;5017245;28;20796;-85
2022/09/01 01:33:17;;;;;;;1.55;1.27;;;;;;;12.11;100.00;101826.00;5028067;28;20434;-85
2022/09/01 01:35:54;;;;;;;3.30;1.42;;;;;;;12.14;100.00;101824.63;5016780;28;20412;-86
2022/09/01 01:38:29;;;;;;;2.83;1.30;;;;;;;12.27;100.00;101839.75;5025526;28;20431;-85
2022/09/01 01:41:05;;;;;;;2.47;1.40;;;;;;;12.19;100.00;101832.88;5022112;28;20448;-85
2022/09/01 01:43:38;;;;;;;2.78;1.33;;;;;;;12.17;100.00;101830.41;5005654;28;20438;-86
2022/09/01 01:46:08;;;;;;;2.08;1.20;;;;;;;12.23;100.00;101834.00;5027872;28;20442;-85
2022/09/01 01:48:42;;;;;;;2.92;1.40;;;;;;;12.23;100.00;101829.34;4997181;28;20427;-84
2022/09/01 01:51:20;;;;;;;1.95;1.23;;;;;;;12.27;100.00;101826.91;5011981;28;20427;-85
2022/09/01 01:53:54;;;;;;;1.67;1.25;;;;;;;12.11;100.00;101815.09;5021222;28;20434;-85
2022/09/01 01:56:24;;;;;;;3.17;1.25;;;;;;;12.04;100.00;101804.41;5011527;28;20426;-87
2022/09/01 01:58:54;;;;;;;2.67;1.27;;;;;;;12.02;100.00;101820.19;5027144;28;20789;-86
2022/09/01 02:01:30;;;;;;;2.75;1.30;;;;;;;12.10;100.00;101820.78;5026093;28;20431;-86
2022/09/01 02:04:04;;;;;;;2.05;1.10;;;;;;;12.15;100.00;101821.66;5006331;28;20442;-85
2022/09/01 02:06:35;;;;;;;1.88;1.23;;;;;;;12.10;100.00;101823.50;5010770;28;20427;-84
2022/09/01 02:09:08;;;;;;;2.15;1.20;;;;;;;12.06;100.00;101824.03;5022512;28;20439;-86
2022/09/01 02:11:44;;;;;;;3.00;1.20;;;;;;;12.02;100.00;101812.00;5030236;28;20431;-86
2022/09/01 02:14:14;;;;;;;1.98;1.20;;;;;;;11.93;100.00;101820.91;5028332;28;20950;-85
2022/09/01 02:16:49;;;;;;;1.60;1.30;;;;;;;11.89;100.00;101817.88;5015600;28;20772;-85
2022/09/01 02:19:22;;;;;;;1.95;1.23;;;;;;;11.82;100.00;101807.22;5002759;28;20421;-86
2022/09/01 02:21:55;;;;;;;2.80;1.40;;;;;;;11.85;100.00;101809.41;5006357;28;20436;-85
2022/09/01 02:24:30;;;;;;;2.80;1.30;;;;;;;11.63;100.00;101789.56;5025985;28;20468;-85
2022/09/01 02:27:05;;;;;;;2.25;1.40;;;;;;;11.79;100.00;101823.25;5003561;28;20446;-86
2022/09/01 02:29:38;;;;;;;2.58;1.55;;;;;;;11.78;100.00;101817.00;5017949;28;20426;-85
2022/09/01 02:32:12;;;;;;;1.98;1.35;;;;;;;11.82;100.00;101814.53;5030420;28;20452;-84
2022/09/01 02:34:52;;;;;;;2.42;1.42;;;;;;;11.83;100.00;101818.94;5029827;28;20431;-85
2022/09/01 02:37:26;;;;;;;2.35;1.35;;;;;;;11.78;100.00;101816.16;5005765;28;20420;-85
2022/09/01 02:39:59;;;;;;;2.45;1.40;;;;;;;11.83;100.00;101822.47;5011527;28;20433;-85
2022/09/01 02:42:34;;;;;;;2.38;1.40;;;;;;;11.87;100.00;101820.06;5023761;28;20435;-85
2022/09/01 02:45:10;;;;;;;2.77;1.47;;;;;;;11.78;100.00;101811.53;5033633;28;20511;-86
2022/09/01 02:47:45;;;;;;;2.70;1.35;;;;;;;11.80;100.00;101814.00;5015442;28;20449;-85
2022/09/01 02:50:18;;;;;;;3.00;1.48;;;;;;;11.72;100.00;101810.69;5010612;28;20429;-86
2022/09/01 02:52:53;;;;;;;2.20;1.40;;;;;;;11.74;100.00;101822.13;5027490;28;20431;-85
2022/09/01 02:55:26;;;;;;;3.97;1.50;;;;;;;11.69;100.00;101815.81;5010464;28;20423;-85
2022/09/01 02:58:01;;;;;;;2.70;1.60;;;;;;;11.68;100.00;101812.28;5025907;28;20426;-85
2022/09/01 03:00:38;;;;;;;3.47;1.63;;;;;;;11.66;100.00;101803.53;5010536;28;20779;-85
2022/09/01 03:03:12;;;;;;;2.07;1.50;;;;;;;11.70;100.00;101809.28;5011385;28;20514;-84
2022/09/01 03:05:40;;;;;;;2.83;1.67;;;;;;;11.71;100.00;101808.19;5028668;28;20446;-85
2022/09/01 03:08:14;;;;;;;2.10;1.40;;;;;;;11.84;100.00;101809.66;5008490;28;20428;-86
2022/09/01 03:10:46;;;;;;;4.05;1.60;;;;;;;11.85;100.00;101808.59;5026680;28;20441;-86
2022/09/01 03:13:24;;;;;;;2.42;1.50;;;;;;;11.81;100.00;101812.94;5024127;28;20915;-85
2022/09/01 03:15:57;;;;;;;2.80;1.45;;;;;;;11.69;100.00;101819.34;5023833;28;20419;-85
2022/09/01 03:18:32;;;;;;;3.50;1.50;;;;;;;11.57;100.00;101816.81;5028418;28;20427;-85
2022/09/01 03:21:07;;;;;;;3.22;1.52;;;;;;;11.55;100.00;101815.41;5013919;28;20431;-84
2022/09/01 03:23:40;;;;;;;2.03;1.40;;;;;;;11.37;100.00;101781.19;5027157;28;20415;-85
2022/09/01 03:26:17;;;;;;;3.08;1.70;;;;;;;11.60;100.00;101812.75;5025195;28;20434;-85
2022/09/01 03:28:52;;;;;;;3.35;1.90;;;;;;;11.63;100.00;101816.84;5027112;28;20435;-84
2022/09/01 03:31:27;;;;;;;2.67;1.75;;;;;;;11.69;100.00;101813.09;5012024;28;20934;-85
2022/09/01 03:34:04;;;;;;;2.85;1.77;;;;;;;11.60;100.00;101815.47;5012369;28;20878;-85
2022/09/01 03:36:48;;;;;;;2.83;1.58;;;;;;;11.52;100.00;101815.94;5023786;28;20431;-85
2022/09/01 03:39:28;;;;;;;2.60;1.52;;;;;;;11.40;100.00;101816.91;5024366;28;20419;-85
2022/09/01 03:41:57;;;;;;;4.57;1.77;;;;;;;11.31;100.00;101807.56;5006063;28;20435;-85
2022/09/01 03:44:39;;;;;;;2.17;1.67;;;;;;;11.32;100.00;101809.19;5025103;28;20414;-85
2022/09/01 03:47:14;;;;;;;4.83;1.87;;;;;;;11.20;100.00;101816.72;5028946;28;20830;-85
2022/09/01 03:49:48;;;;;;;2.58;1.70;;;;;;;11.17;100.00;101812.59;5025005;28;20427;-85
2022/09/01 03:52:17;;;;;;;3.60;1.90;;;;;;;11.14;100.00;101796.75;5024786;28;20974;-85
2022/09/01 03:54:52;;;;;;;3.30;1.77;;;;;;;11.14;100.00;101798.66;5024422;28;20458;-85
2022/09/01 03:57:21;;;;;;;2.33;1.70;;;;;;;11.12;100.00;101796.19;4997667;28;20432;-85
2022/09/01 03:59:55;;;;;;;2.38;1.70;;;;;;;11.10;100.00;101798.31;5005144;28;20435;-84
2022/09/01 04:02:29;;;;;;;4.60;1.80;;;;;;;11.04;100.00;101786.56;5024560;28;20425;-84
2022/09/01 04:05:03;;;;;;;3.00;1.83;;;;;;;11.12;100.00;101800.81;5011018;28;20450;-85
2022/09/01 04:07:37;;;;;;;3.17;1.65;;;;;;;11.15;100.00;101803.03;5012898;28;20439;-84
2022/09/01 04:10:10;;;;;;;3.20;1.50;;;;;;;11.18;100.00;101805.22;5028392;28;20423;-85
2022/09/01 04:12:38;;;;;;;3.00;1.80;;;;;;;11.16;100.00;101804.69;5025501;28;20439;-84
2022/09/01 04:15:15;;;;;;;4.00;1.60;;;;;;;11.13;100.00;101802.44;5026665;28;20431;-84
2022/09/01 04:20:38;;;;;;;2.28;1.60;;;;;;;11.08;100.00;101805.13;5013712;28;20419;-85
2022/09/01 04:23:12;;;;;;;2.70;1.90;;;;;;;11.07;100.00;101804.28;5028672;28;20423;-84
2022/09/01 04:25:45;;;;;;;2.97;1.80;;;;;;;11.01;100.00;101799.88;5000480;28;20438;-84
2022/09/01 04:28:21;;;;;;;3.50;1.90;;;;;;;11.01;100.00;101814.31;5012451;28;20880;-84
2022/09/01 04:30:54;;;;;;;3.53;2.00;;;;;;;10.98;100.00;101809.38;5009433;28;20435;-84
2022/09/01 04:33:33;;;;;;;3.10;1.80;;;;;;;10.92;100.00;101813.09;5017113;28;20423;-83
2022/09/01 04:36:02;;;;;;;4.13;2.00;;;;;;;10.95;100.00;101800.88;5012880;28;20428;-84
2022/09/01 04:38:35;;;;;;;3.78;1.90;;;;;;;10.92;100.00;101804.94;5029627;28;20641;-83
2022/09/01 04:41:15;;;;;;;3.05;2.00;;;;;;;10.89;100.00;101798.09;5027810;28;20431;-84
2022/09/01 04:43:50;;;;;;;3.55;2.00;;;;;;;10.92;100.00;101809.56;5025173;28;20407;-83
2022/09/01 04:46:28;;;;;;;3.80;1.90;;;;;;;10.93;100.00;101806.59;5026370;28;20435;-83
2022/09/01 04:49:09;;;;;;;3.60;1.90;;;;;;;10.92;100.00;101804.13;5014109;28;20429;-84
2022/09/01 04:51:48;;;;;;;3.40;2.10;;;;;;;10.91;100.00;101794.31;5026498;28;20422;-84
2022/09/01 04:54:17;;;;;;;3.40;2.10;;;;;;;10.93;100.00;101801.16;5028848;28;20422;-83
2022/09/01 04:56:52;;;;;;;4.45;2.00;;;;;;;10.96;100.00;101800.63;5027737;28;20426;-83
2022/09/01 04:59:28;;;;;;;3.50;1.90;;;;;;;11.02;100.00;101806.97;5027378;28;20426;-83
2022/09/01 05:02:08;;;;;;;3.28;2.03;;;;;;;11.05;100.00;101809.19;5011337;28;20439;-84
2022/09/01 05:04:45;;;;;;;2.75;1.90;;;;;;;11.12;100.00;101804.38;5029379;28;20416;-83
2022/09/01 05:07:18;;;;;;;4.05;2.00;;;;;;;11.20;100.00;101806.63;5028135;28;20427;-85
2022/09/01 05:09:48;;;;;;;3.60;1.80;;;;;;;11.46;100.00;101812.34;5011839;28;20438;-84
2022/09/01 05:12:44;;;;;;;2.83;1.77;;;;;;;11.76;100.00;101782.88;5011156;28;20427;-83
2022/09/01 05:15:19;;;;;;;3.00;1.65;;;;;;;11.89;100.00;101810.53;5013415;28;20440;-83
2022/09/01 05:17:55;;;;;;;2.75;1.80;;;;;;;11.84;100.00;101815.94;5028398;28;20434;-82
2022/09/01 05:20:29;;;;;;;4.85;2.10;;;;;;;11.75;100.00;101809.31;5027683;28;20791;-84
2022/09/01 05:23:03;;;;;;;3.22;2.13;;;;;;;11.53;100.00;101807.50;5027234;28;20415;-84
2022/09/01 05:25:39;;;;;;;3.30;2.08;;;;;;;11.49;100.00;101802.81;5023561;28;20436;-84
2022/09/01 05:28:13;;;;;;;3.53;2.00;;;;;;;11.57;100.00;101811.34;5011448;28;20871;-84
2022/09/01 05:30:41;;;;;;;3.95;1.90;;;;;;;11.65;100.00;101817.41;5012028;28;20430;-84
2022/09/01 05:33:15;;;;;;;2.80;1.90;;;;;;;11.65;100.00;101803.78;5021338;28;20431;-84
2022/09/01 05:35:54;;;;;;;3.22;1.90;;;;;;;11.72;100.00;101818.00;5010997;28;20445;-84
2022/09/01 05:38:29;;;;;;;2.85;1.80;;;;;;;11.72;100.00;101813.41;5024900;28;20415;-83
2022/09/01 05:41:07;;;;;;;3.10;1.90;;;;;;;11.80;100.00;101814.81;5026802;28;20502;-83
2022/09/01 05:43:45;;;;;;;3.83;2.00;;;;;;;11.83;100.00;101817.00;5007422;28;20423;-83
2022/09/01 05:46:22;;;;;;;3.55;1.83;;;;;;;11.88;100.00;101819.78;5017314;28;20438;-83
2022/09/01 05:48:57;;;;;;;3.80;2.10;;;;;;;11.88;100.00;101818.97;5022231;28;20920;-83
2022/09/01 05:51:33;;;;;;;2.72;1.90;;;;;;;11.92;100.00;101828.28;5013458;28;20435;-83
2022/09/01 05:54:08;;;;;;;2.90;1.90;;;;;;;12.00;100.00;101827.84;5024431;28;20436;-82
2022/09/01 05:56:40;;;;;;;2.92;2.00;;;;;;;11.95;100.00;101825.06;5010364;28;20419;-85
2022/09/01 05:59:09;;;;;;;4.20;2.13;;;;;;;11.94;100.00;101822.56;5029352;28;20926;-85
2022/09/01 06:01:39;;;;;;;3.50;2.00;;;;;;;11.76;100.00;101801.97;5028361;28;20424;-85
2022/09/01 06:04:14;;;;;;;3.17;2.00;;;;;;;11.96;100.00;101821.25;5008900;28;20424;-86
2022/09/01 06:06:48;;;;;;;3.40;2.10;;;;;;;12.02;100.00;101820.19;5012503;28;20471;-87
2022/09/01 06:09:22;;;;;;;3.78;1.90;;;;;;;12.06;100.00;101812.31;5011936;28;20430;-84
2022/09/01 06:11:54;;;;;;;3.38;2.00;;;;;;;12.21;100.00;101822.53;5025874;28;20426;-84
2022/09/01 06:14:27;;;;;;;4.20;2.25;;;;;;;12.40;100.00;101823.72;5009451;28;20438;-85
2022/09/01 06:17:01;;;;;;;4.30;2.40;;;;;;;12.62;100.00;101816.47;5012230;28;20426;-85
2022/09/01 06:19:33;;;;;;;3.72;2.20;;;;;;;12.81;100.00;101819.56;5025635;28;20446;-85
2022/09/01 06:22:09;;;;;;;4.40;2.10;;;;;;;13.07;100.00;101815.00;5023883;28;20886;-85
2022/09/01 06:24:42;;;;;;;3.97;1.98;;;;;;;13.21;100.00;101826.25;5006648;28;20928;-85
2022/09/01 06:27:19;;;;;;;3.08;2.05;;;;;;;13.34;100.00;101817.53;5007525;28;20427;-84
2022/09/01 06:29:53;;;;;;;3.45;2.00;;;;;;;13.45;100.00;101821.16;5008712;28;20415;-86
2022/09/01 06:32:27;;;;;;;3.90;2.20;;;;;;;13.55;100.00;101820.34;5024207;28;20520;-87
2022/09/01 06:35:07;;;;;;;5.57;2.03;;;;;;;13.69;100.00;101815.97;5010416;28;20911;-86
2022/09/01 06:37:42;;;;;;;2.50;1.70;;;;;;;13.83;100.00;101813.50;5002199;28;20899;-85
2022/09/01 06:40:31;;;;;;;4.22;2.00;;;;;;;13.96;100.00;101814.84;5004098;28;20409;-85
2022/09/01 06:43:06;;;;;;;2.88;1.90;;;;;;;14.06;100.00;101820.31;5011507;28;20426;-85
2022/09/01 06:45:48;;;;;;;3.92;2.05;;;;;;;14.25;100.00;101814.25;5008202;28;20434;-86
2022/09/01 06:48:23;;;;;;;2.78;1.88;;;;;;;14.21;100.00;101816.75;4987992;28;20423;-85
2022/09/01 06:51:08;;;;;;;3.22;2.00;;;;;;;14.44;100.00;101819.97;5013380;28;20435;-84
2022/09/01 06:53:42;;;;;;;4.40;1.90;;;;;;;14.64;100.00;101830.09;4999353;28;20436;-86
2022/09/01 06:56:14;;;;;;;2.50;1.70;;;;;;;14.66;100.00;101827.06;4981278;28;20596;-87
2022/09/01 06:58:45;;;;;;;3.00;1.60;;;;;;;14.61;100.00;101828.69;4999601;28;21101;-86
2022/09/01 07:01:20;;;;;;;1.95;1.30;;;;;;;14.78;100.00;101830.31;5015958;28;20421;-88
2022/09/01 07:03:56;;;;;;;7.68;4.00;;;;;;;14.96;100.00;101826.94;5013402;28;20435;-89
2022/09/01 07:06:39;;;;;;;3.83;1.60;;;;;;;14.97;100.00;101836.00;5007245;28;21186;-87
2022/09/01 07:09:17;;;;;;;1.67;1.00;;;;;;;15.05;100.00;101827.19;5024249;28;20442;-87
2022/09/01 07:12:09;;;;;;;1.08;0.82;;;;;;;15.31;100.00;101824.28;5024319;28;20415;-88
2022/09/01 07:14:43;;;;;;;2.20;0.80;;;;;;;15.38;100.00;101841.22;5013045;28;20409;-85
2022/09/01 07:17:16;;;;;;;2.63;0.70;;;;;;;15.42;100.00;101833.28;5013369;28;20915;-85
2022/09/01 07:19:50;;;;;;;1.53;0.87;;;;;;;15.48;100.00;101834.88;4997857;28;20433;-87
2022/09/01 07:22:25;;;;;;;1.50;0.80;;;;;;;15.53;100.00;101832.09;4996355;28;21088;-86
2022/09/01 07:25:00;;;;;;;1.48;0.90;;;;;;;15.89;100.00;101848.31;5012016;28;21907;-86
2022/09/01 07:27:39;;;;;;;1.20;0.60;;;;;;;15.84;100.00;101840.13;5012844;28;20429;-85
2022/09/01 07:30:12;;;;;;;1.02;0.70;;;;;;;15.73;100.00;101844.84;5014607;28;20429;-85
2022/09/01 07:32:43;;;;;;;1.02;0.68;;;;;;;15.70;100.00;101847.34;5001219;28;20424;-83
2022/09/01 07:35:21;;;;;;;2.42;0.95;;;;;;;16.22;100.00;101839.53;5004967;28;20440;-86
2022/09/01 07:37:54;;;;;;;3.60;0.95;;;;;;;16.00;100.00;101845.50;5014305;28;21896;-85
2022/09/01 07:40:28;;;;;;;1.40;0.80;;;;;;;16.10;100.00;101848.97;4994448;28;20487;-86
2022/09/01 07:43:23;;;;;;;0.70;0.65;;;;;;;16.08;100.00;101842.94;5022131;28;20431;-87
2022/09/01 07:46:20;;;;;;;1.77;0.80;;;;;;;16.45;100.00;101843.41;5013540;28;20439;-86
2022/09/01 07:48:49;;;;;;;1.40;0.70;;;;;;;16.35;100.00;101849.00;5001440;28;20418;-86
2022/09/01 07:51:25;;;;;;;4.83;1.33;;;;;;;16.38;100.00;101851.16;4999176;28;21377;-86
2022/09/01 07:53:55;;;;;;;1.67;0.80;;;;;;;16.32;100.00;101843.00;5004399;28;20423;-88
2022/09/01 07:56:30;;;;;;;1.10;0.80;;;;;;;16.37;100.00;101846.78;5005708;28;20438;-87
2022/09/01 07:59:03;;;;;;;1.90;0.60;;;;;;;16.46;100.00;101845.03;4985279;28;20435;-87
2022/09/01 08:01:38;;;;;;;3.65;0.70;;;;;;;16.56;100.00;101853.19;4967329;28;20434;-86
2022/09/01 08:04:06;;;;;;;0.60;0.50;;;;;;;16.42;100.00;101847.56;4983045;28;20801;-86
2022/09/01 08:06:41;;;;;;;2.38;0.70;;;;;;;16.42;100.00;101861.28;4983440;28;20462;-83
2022/09/01 08:09:11;;;;;;;1.43;0.70;;;;;;;16.66;100.00;101847.53;5003416;28;20446;-88
2022/09/01 08:11:44;;;;;;;2.15;0.70;;;;;;;16.83;100.00;101852.59;5010881;28;20429;-83
2022/09/01 08:14:13;;;;;;;3.05;0.60;;;;;;;16.84;100.00;101845.97;4994561;28;20435;-86
2022/09/01 08:16:46;;;;;;;0.55;0.47;;;;;;;16.90;100.00;101846.75;5016327;28;20431;-87
2022/09/01 08:19:17;;;;;;;0.98;0.60;;;;;;;16.92;100.00;101824.47;4999578;28;20435;-85
2022/09/01 08:22:10;;;;;;;1.85;0.65;;;;;;;16.81;100.00;101848.50;4999308;28;20437;-87
2022/09/01 08:25:03;;;;;;;0.90;0.70;;;;;;;16.81;100.00;101860.28;5010220;28;20433;-86
2022/09/01 08:27:32;;;;;;;0.80;0.60;;;;;;;17.30;100.00;101854.75;5015730;28;21242;-85
2022/09/01 08:30:00;;;;;;;1.40;0.70;;;;;;;17.25;100.00;101854.81;5013375;28;20421;-86
2022/09/01 08:32:28;;;;;;;1.70;1.02;;;;;;;17.56;100.00;101855.19;5015754;28;20442;-84
2022/09/01 08:35:04;;;;;;;1.50;0.98;;;;;;;17.66;100.00;101851.47;5000975;28;20440;-86
2022/09/01 08:37:39;;;;;;;0.40;0.40;;;;;;;17.37;100.00;101846.94;5016932;28;20425;-86
2022/09/01 08:40:17;;;;;;;0.75;0.50;;;;;;;17.08;100.00;101841.56;5013487;28;20426;-88
2022/09/01 08:43:02;;;;;;;1.23;0.67;;;;;;;17.36;100.00;101852.75;4997389;28;20435;-85
2022/09/01 08:45:40;;;;;;;2.20;0.60;;;;;;;17.41;100.00;101858.19;4997377;28;20458;-86
2022/09/01 08:48:17;;;;;;;3.22;0.60;;;;;;;17.48;100.00;101850.34;5009075;28;20427;-86
2022/09/01 08:51:05;;;;;;;1.55;0.63;;;;;;;17.54;100.00;101851.94;5015443;28;20423;-84
2022/09/01 08:54:10;;;;;;;1.60;0.60;;;;;;;17.44;100.00;101849.31;5002694;28;20793;-86
2022/09/01 08:56:46;;;;;;;1.40;0.60;;;;;;;17.50;100.00;101853.66;4997206;28;20952;-86
2022/09/01 08:59:16;;;;;;;1.23;0.52;;;;;;;17.51;100.00;101844.25;5004129;28;20431;-86
2022/09/01 09:02:32;;;;;;;1.60;0.60;;;;;;;17.53;100.00;101841.22;5008863;28;21728;-85
2022/09/01 09:05:17;;;;;;;1.42;0.70;;;;;;;17.61;100.00;101840.56;4992538;28;20426;-88
2022/09/01 09:08:02;;;;;;;1.10;0.70;;;;;;;17.51;100.00;101841.50;5013397;28;20434;-86
2022/09/01 09:10:46;;;;;;;1.10;0.70;;;;;;;17.72;100.00;101847.53;5012268;28;20918;-86
2022/09/01 09:13:29;;;;;;;1.20;0.60;;;;;;;17.74;100.00;101838.97;5013180;28;20463;-86
2022/09/01 09:16:02;;;;;;;8.88;0.77;;;;;;;17.91;88.38;101839.25;4992991;28;20437;-84
2022/09/01 09:18:43;;;;;;;2.47;0.70;;;;;;;17.80;95.22;101829.47;4997170;28;20988;-88
2022/09/01 09:21:22;;;;;;;0.57;0.50;;;;;;;17.73;100.00;101824.38;4994097;28;20423;-85
2022/09/01 09:24:03;;;;;;;2.77;0.60;;;;;;;18.10;88.81;101833.69;4995992;28;21227;-84
2022/09/01 09:26:32;;;;;;;0.82;0.60;;;;;;;18.39;97.05;101827.09;4994407;28;20437;-85
2022/09/01 09:29:06;;;;;;;1.10;0.60;;;;;;;18.40;93.31;101825.97;5015355;28;20435;-83
2022/09/01 09:31:42;;;;;;;1.98;0.70;;;;;;;18.36;97.69;101817.50;5015320;28;20425;-86
2022/09/01 09:34:18;;;;;;;1.88;0.70;;;;;;;18.66;88.98;101820.78;5008742;28;20561;-86
2022/09/01 09:36:52;;;;;;;0.95;0.65;;;;;;;18.57;92.29;101816.28;5012040;28;20442;-86
2022/09/01 09:39:25;;;;;;;1.60;0.60;;;;;;;18.46;92.73;101801.88;5011095;28;22138;-86
2022/09/01 09:42:08;;;;;;;1.55;0.82;;;;;;;18.52;91.06;101808.94;5010663;28;20905;-87
2022/09/01 09:44:49;;;;;;;0.90;0.60;;;;;;;18.78;86.48;101812.00;4994623;28;20886;-86
2022/09/01 09:47:39;;;;;;;0.90;0.73;;;;;;;18.82;77.51;101810.25;5017546;28;20435;-87
2022/09/01 09:50:18;;;;;;;1.10;0.70;;;;;;;19.00;92.23;101800.25;4995999;28;20436;-88
2022/09/01 09:52:54;;;;;;;0.70;0.60;;;;;;;19.21;100.00;101799.78;5008934;28;20523;-88
2022/09/01 09:55:26;;;;;;;0.93;0.70;;;;;;;19.12;93.21;101801.63;5021648;28;20461;-87
2022/09/01 09:57:58;;;;;;;1.83;0.70;;;;;;;19.23;81.95;101796.69;5018984;28;20436;-85
2022/09/01 10:00:29;;;;;;;1.47;0.70;;;;;;;19.28;85.93;101799.31;4998315;28;20496;-86
2022/09/01 10:03:06;;;;;;;1.20;0.60;;;;;;;19.13;76.59;101800.50;4996320;28;20423;-88
2022/09/01 10:05:47;;;;;;;2.47;0.70;;;;;;;18.93;82.09;101799.81;5015190;28;20800;-87
2022/09/01 10:08:43;;;;;;;1.57;0.77;;;;;;;18.68;85.93;101792.88;5021526;28;20487;-87
2022/09/01 10:11:31;;;;;;;1.60;0.70;;;;;;;18.91;80.47;101785.53;4999325;28;20452;-86
2022/09/01 10:13:59;;;;;;;1.03;0.60;;;;;;;19.08;84.72;101784.88;4995156;28;20466;-84
2022/09/01 10:16:38;;;;;;;1.20;0.52;;;;;;;18.72;94.69;101791.16;5008964;28;22244;-88
2022/09/01 10:19:11;;;;;;;1.80;0.60;;;;;;;18.70;84.30;101793.41;5013284;28;20440;-88
2022/09/01 10:21:46;;;;;;;0.80;0.60;;;;;;;18.64;89.24;101789.13;4994573;28;20434;-88
2022/09/01 10:24:28;;;;;;;0.80;0.70;;;;;;;18.52;79.92;101789.66;4999968;28;20426;-88
2022/09/01 10:27:03;;;;;;;1.02;0.60;;;;;;;18.53;84.79;101775.56;5002499;28;20480;-87
2022/09/01 10:29:42;;;;;;;3.15;0.70;;;;;;;18.44;93.44;101780.16;4997580;28;20442;-84
2022/09/01 10:32:19;;;;;;;0.77;0.60;;;;;;;18.52;94.26;101790.44;5002796;28;21123;-85
2022/09/01 10:34:48;;;;;;;2.10;0.70;;;;;;;18.49;98.67;101793.84;5013173;28;20458;-87
2022/09/01 10:37:23;;;;;;;1.05;0.70;;;;;;;18.51;95.09;101788.81;5016953;28;20431;-88
2022/09/01 10:40:34;;;;;;;2.13;0.80;;;;;;;18.45;98.03;101780.94;5025541;28;20440;-90
2022/09/01 10:43:33;;;;;;;3.70;0.50;;;;;;;18.78;84.54;101783.56;5014083;28;20432;-87
2022/09/01 10:46:32;;;;;;;4.07;1.50;;;;;;;18.84;87.42;101776.84;4986435;28;20558;-87
2022/09/01 10:49:12;;;;;;;0.85;0.63;;;;;;;18.75;100.00;101784.19;4982499;28;20434;-86
2022/09/01 10:51:44;;;;;;;5.90;0.80;;;;;;;18.81;100.00;101786.53;5005347;28;20464;-84
2022/09/01 10:55:00;;;;;;;1.85;0.63;;;;;;;19.33;100.00;101786.25;4989113;28;20443;-86
2022/09/01 10:57:44;;;;;;;2.30;0.70;;;;;;;19.28;94.16;101782.75;5005642;28;20431;-82
2022/09/01 11:00:50;;;;;;;0.60;0.60;;;;;;;19.52;88.59;101783.28;4988468;28;21988;-88
2022/09/01 11:03:37;;;;;;;4.35;0.70;;;;;;;19.50;89.69;101787.47;4988359;28;20437;-85
2022/09/01 11:06:08;;;;;;;1.02;0.65;;;;;;;19.42;87.10;101777.22;4991806;28;20441;-84
2022/09/01 11:08:44;;;;;;;1.50;0.77;;;;;;;19.60;85.33;101772.63;4982168;28;20419;-81
2022/09/01 11:11:36;;;;;;;5.25;0.68;;;;;;;19.96;89.28;101793.84;4981252;28;20423;-86
2022/09/01 11:14:18;;;;;;;1.25;0.73;;;;;;;19.95;78.75;101778.38;4981014;28;20837;-83
2022/09/01 11:17:35;;;;;;;1.88;0.70;;;;;;;19.56;83.63;101780.72;5004367;28;20437;-87
2022/09/01 11:20:12;;;;;;;2.10;0.60;;;;;;;19.32;85.51;101778.25;4989408;28;20425;-86
2022/09/01 11:22:44;;;;;;;1.20;0.60;;;;;;;19.17;88.28;101779.44;4988238;28;20449;-87
2022/09/01 11:25:40;;;;;;;2.95;0.73;;;;;;;19.01;86.94;101779.78;5017546;28;20434;-85
2022/09/01 11:28:25;;;;;;;4.25;1.05;;;;;;;19.11;83.90;101778.75;4993764;28;20519;-86
2022/09/01 11:31:03;;;;;;;7.05;4.25;;;;;;;18.94;88.79;101781.34;4989481;28;20429;-84
2022/09/01 11:33:49;;;;;;;2.38;0.80;;;;;;;18.80;93.83;101776.63;5009504;28;20433;-84
2022/09/01 11:36:28;;;;;;;2.55;0.85;;;;;;;18.76;95.60;101775.63;5012341;28;20961;-85
2022/09/01 11:39:18;;;;;;;3.28;0.90;;;;;;;18.70;95.71;101769.41;4993075;28;20442;-86
2022/09/01 11:41:56;;;;;;;3.58;0.80;;;;;;;18.62;100.00;101756.34;4985450;28;21036;-83
2022/09/01 11:44:35;;;;;;;1.00;0.70;;;;;;;18.72;95.94;101771.03;4989337;28;20438;-85
2022/09/01 11:47:08;;;;;;;1.35;0.70;;;;;;;18.92;91.32;101753.25;4995680;28;20442;-87
2022/09/01 11:49:48;;;;;;;1.20;0.60;;;;;;;19.19;96.46;101755.91;5002210;28;20444;-85
2022/09/01 11:52:18;;;;;;;1.60;0.80;;;;;;;19.17;89.39;101757.38;5010760;28;20423;-85
2022/09/01 11:54:54;;;;;;;0.87;0.70;;;;;;;19.33;82.98;101747.59;4995295;28;20517;-86
2022/09/01 11:57:31;;;;;;;0.70;0.70;;;;;;;19.47;91.30;101738.41;5014792;28;20433;-86
2022/09/01 12:00:02;;;;;;;0.70;0.60;;;;;;;19.64;80.91;101737.72;4991335;28;20433;-86
2022/09/01 12:02:45;;;;;;;3.80;0.90;;;;;;;19.80;84.27;101738.16;5015271;28;21552;-86
2022/09/01 12:05:27;;;;;;;8.15;1.15;;;;;;;20.10;85.50;101736.50;5017723;28;20435;-85
2022/09/01 12:08:03;;;;;;;7.25;0.70;;;;;;;20.00;84.41;101745.09;4991624;28;20436;-87